sensor_id;sensor_type;location;lat;lon;timestamp;pressure;altitude;pressure_sealevel;temperature;humidity
15634;BME280;14654;48.898;8.308;2023-05-03T00:00:59;101179.69;;;8.87;100.00
15634;BME280;14654;48.898;8.308;2023-05-03T00:03:26;101183.09;;;8.84;100.00
15634;BME280;14654;48.898;8.308;2023-05-03T00:05:51;101182.22;;;8.85;100.00
15634;BME280;14654;48.898;8.308;2023-05-03T00:08:17;101186.59;;;8.88;100.00
15634;BME280;14654;48.898;8.308;2023-05-03T00:10:42;101182.16;;;8.79;100.00
15634;BME280;14654;48.898;8.308;2023-05-03T00:13:07;101175.25;;;8.77;100.00
15634;BME280;14654;48.898;8.308;2023-05-03T00:15:33;101186.44;;;8.79;100.00
15634;BME280;14654;48.898;8.308;2023-05-03T00:17:58;101188.97;;;8.74;100.00
15634;BME280;14654;48.898;8.308;2023-05-03T00:20:23;101185.50;;;8.72;100.00
15634;BME280;14654;48.898;8.308;2023-05-03T00:22:49;101182.91;;;8.71;100.00
15634;BME280;14654;48.898;8.308;2023-05-03T00:25:15;101190.59;;;8.66;100.00
15634;BME280;14654;48.898;8.308;2023-05-03T00:27:40;101191.44;;;8.65;100.00
15634;BME280;14654;48.898;8.308;2023-05-03T00:30:06;101179.34;;;8.61;100.00
15634;BME280;14654;48.898;8.308;2023-05-03T00:32:32;101180.13;;;8.57;100.00
15634;BME280;14654;48.898;8.308;2023-05-03T00:34:57;101185.25;;;8.52;100.00
15634;BME280;14654;48.898;8.308;2023-05-03T00:37:23;101182.59;;;8.49;100.00
15634;BME280;14654;48.898;8.308;2023-05-03T00:39:49;101190.31;;;8.47;100.00
15634;BME280;14654;48.898;8.308;2023-05-03T00:42:15;101189.50;;;8.50;100.00
15634;BME280;14654;48.898;8.308;2023-05-03T00:44:40;101190.31;;;8.47;100.00
15634;BME280;14654;48.898;8.308;2023-05-03T00:47:06;101184.25;;;8.45;100.00
15634;BME280;14654;48.898;8.308;2023-05-03T00:49:32;101185.09;;;8.43;100.00
15634;BME280;14654;48.898;8.308;2023-05-03T00:51:58;101179.88;;;8.39;100.00
15634;BME280;14654;48.898;8.308;2023-05-03T00:54:26;101171.19;;;8.34;100.00
15634;BME280;14654;48.898;8.308;2023-05-03T00:56:51;101190.94;;;8.31;100.00
15634;BME280;14654;48.898;8.308;2023-05-03T00:59:18;101177.97;;;8.28;100.00
15634;BME280;14654;48.898;8.308;2023-05-03T01:01:47;101173.66;;;8.25;100.00
15634;BME280;14654;48.898;8.308;2023-05-03T01:04:12;101183.06;;;8.21;100.00
15634;BME280;14654;48.898;8.308;2023-05-03T01:12:14;101168.25;;;8.09;100.00
15634;BME280;14654;48.898;8.308;2023-05-03T01:17:37;101163.81;;;7.99;100.00
15634;BME280;14654;48.898;8.308;2023-05-03T01:20:07;101155.19;;;7.97;100.00
15634;BME280;14654;48.898;8.308;2023-05-03T01:22:49;101158.59;;;7.96;100.00
15634;BME280;14654;48.898;8.308;2023-05-03T01:25:20;101155.13;;;7.94;100.00
15634;BME280;14654;48.898;8.308;2023-05-03T01:27:46;101153.38;;;7.91;100.00
15634;BME280;14654;48.898;8.308;2023-05-03T01:30:12;101154.19;;;7.89;100.00
15634;BME280;14654;48.898;8.308;2023-05-03T01:37:56;101151.44;;;7.78;100.00
15634;BME280;14654;48.898;8.308;2023-05-03T01:40:22;101150.56;;;7.76;100.00
15634;BME280;14654;48.898;8.308;2023-05-03T01:42:49;101149.66;;;7.75;100.00
15634;BME280;14654;48.898;8.308;2023-05-03T01:45:16;101153.94;;;7.73;100.00
15634;BME280;14654;48.898;8.308;2023-05-03T01:47:42;101147.03;;;7.72;100.00
15634;BME280;14654;48.898;8.308;2023-05-03T01:50:08;101147.88;;;7.70;100.00
15634;BME280;14654;48.898;8.308;2023-05-03T01:52:33;101153.78;;;7.64;100.00
15634;BME280;14654;48.898;8.308;2023-05-03T01:54:58;101150.25;;;7.59;100.00
15634;BME280;14654;48.898;8.308;2023-05-03T01:57:24;101151.06;;;7.56;100.00
15634;BME280;14654;48.898;8.308;2023-05-03T01:59:49;101145.91;;;7.55;100.00
15634;BME280;14654;48.898;8.308;2023-05-03T02:02:15;101149.28;;;7.52;100.00
15634;BME280;14654;48.898;8.308;2023-05-03T02:04:40;101150.09;;;7.50;100.00
15634;BME280;14654;48.898;8.308;2023-05-03T02:07:05;101140.63;;;7.47;100.00
15634;BME280;14654;48.898;8.308;2023-05-03T02:09:31;101141.34;;;7.41;100.00
15634;BME280;14654;48.898;8.308;2023-05-03T02:11:56;101141.28;;;7.37;100.00
15634;BME280;14654;48.898;8.308;2023-05-03T02:14:21;101141.25;;;7.35;100.00
15634;BME280;14654;48.898;8.308;2023-05-03T02:16:47;101147.25;;;7.32;100.00
15634;BME280;14654;48.898;8.308;2023-05-03T02:19:12;101136.06;;;7.33;100.00
15634;BME280;14654;48.898;8.308;2023-05-03T02:21:37;101145.44;;;7.28;100.00
15634;BME280;14654;48.898;8.308;2023-05-03T02:24:03;101148.72;;;7.21;100.00
15634;BME280;14654;48.898;8.308;2023-05-03T02:26:28;101144.41;;;7.20;100.00
15634;BME280;14654;48.898;8.308;2023-05-03T02:28:54;101146.13;;;7.18;100.00
15634;BME280;14654;48.898;8.308;2023-05-03T02:31:23;101147.75;;;7.14;100.00
15634;BME280;14654;48.898;8.308;2023-05-03T02:33:49;101147.75;;;7.14;100.00
15634;BME280;14654;48.898;8.308;2023-05-03T02:36:14;101145.09;;;7.10;100.00
15634;BME280;14654;48.898;8.308;2023-05-03T02:38:40;101145.03;;;7.07;100.00
15634;BME280;14654;48.898;8.308;2023-05-03T02:41:05;101153.56;;;7.04;100.00
15634;BME280;14654;48.898;8.308;2023-05-03T02:43:30;101146.66;;;7.01;100.00
15634;BME280;14654;48.898;8.308;2023-05-03T02:45:56;101153.41;;;6.96;100.00
15634;BME280;14654;48.898;8.308;2023-05-03T02:48:21;101156.81;;;6.94;100.00
15634;BME280;14654;48.898;8.308;2023-05-03T02:50:47;101154.19;;;6.92;100.00
15634;BME280;14654;48.898;8.308;2023-05-03T02:53:12;101152.34;;;6.86;100.00
15634;BME280;14654;48.898;8.308;2023-05-03T02:55:38;101159.16;;;6.84;100.00
15634;BME280;14654;48.898;8.308;2023-05-03T02:58:03;101152.25;;;6.82;100.00
15634;BME280;14654;48.898;8.308;2023-05-03T03:00:29;101155.69;;;6.82;100.00
15634;BME280;14654;48.898;8.308;2023-05-03T03:02:54;101159.91;;;6.77;100.00
15634;BME280;14654;48.898;8.308;2023-05-03T03:05:19;101158.09;;;6.73;100.00
15634;BME280;14654;48.898;8.308;2023-05-03T03:07:45;101157.19;;;6.71;100.00
15634;BME280;14654;48.898;8.308;2023-05-03T03:10:11;101161.41;;;6.67;100.00
15634;BME280;14654;48.898;8.308;2023-05-03T03:12:37;101162.25;;;6.68;100.00
15634;BME280;14654;48.898;8.308;2023-05-03T03:15:03;101167.38;;;6.66;100.00
15634;BME280;14654;48.898;8.308;2023-05-03T03:17:29;101164.75;;;6.63;100.00
15634;BME280;14654;48.898;8.308;2023-05-03T03:19:55;101163.81;;;6.60;100.00
15634;BME280;14654;48.898;8.308;2023-05-03T03:22:22;101159.44;;;6.55;100.00
15634;BME280;14654;48.898;8.308;2023-05-03T03:24:47;101166.28;;;6.55;100.00
15634;BME280;14654;48.898;8.308;2023-05-03T03:27:13;101168.03;;;6.56;100.00
15634;BME280;14654;48.898;8.308;2023-05-03T03:29:38;101172.25;;;6.54;100.00
15634;BME280;14654;48.898;8.308;2023-05-03T03:32:04;101171.28;;;6.49;100.00
15634;BME280;14654;48.898;8.308;2023-05-03T03:34:29;101171.28;;;6.49;100.00
15634;BME280;14654;48.898;8.308;2023-05-03T03:36:55;101172.94;;;6.47;100.00
15634;BME280;14654;48.898;8.308;2023-05-03T03:39:21;101170.31;;;6.44;100.00
15634;BME280;14654;48.898;8.308;2023-05-03T03:41:46;101166.84;;;6.42;100.00
15634;BME280;14654;48.898;8.308;2023-05-03T03:44:11;101168.63;;;6.46;100.00
15634;BME280;14654;48.898;8.308;2023-05-03T03:46:37;101166.78;;;6.38;100.00
15634;BME280;14654;48.898;8.308;2023-05-03T03:49:02;101167.53;;;6.34;100.00
15634;BME280;14654;48.898;8.308;2023-05-03T03:51:27;101163.22;;;6.32;100.00
15634;BME280;14654;48.898;8.308;2023-05-03T03:53:53;101161.47;;;6.31;100.00
15634;BME280;14654;48.898;8.308;2023-05-03T03:56:18;101172.53;;;6.28;100.00
15634;BME280;14654;48.898;8.308;2023-05-03T03:58:43;101169.09;;;6.28;100.00
15634;BME280;14654;48.898;8.308;2023-05-03T04:01:09;101170.75;;;6.24;100.00
15634;BME280;14654;48.898;8.308;2023-05-03T04:03:36;101164.69;;;6.22;100.00
15634;BME280;14654;48.898;8.308;2023-05-03T04:06:01;101168.16;;;6.24;100.00
15634;BME280;14654;48.898;8.308;2023-05-03T04:08:26;101160.47;;;6.24;100.00
15634;BME280;14654;48.898;8.308;2023-05-03T04:10:52;101162.06;;;6.20;100.00
15634;BME280;14654;48.898;8.308;2023-05-03T04:13:17;101161.38;;;6.26;100.00
15634;BME280;14654;48.898;8.308;2023-05-03T04:15:42;101159.69;;;6.28;100.00
15634;BME280;14654;48.898;8.308;2023-05-03T04:18:08;101166.59;;;6.31;100.00
15634;BME280;14654;48.898;8.308;2023-05-03T04:20:33;101168.47;;;6.38;100.00
15634;BME280;14654;48.898;8.308;2023-05-03T04:22:59;101168.63;;;6.44;100.00
15634;BME280;14654;48.898;8.308;2023-05-03T04:25:25;101161.81;;;6.46;100.00
15634;BME280;14654;48.898;8.308;2023-05-03T04:27:51;101180.75;;;6.51;100.00
15634;BME280;14654;48.898;8.308;2023-05-03T04:30:16;101163.75;;;6.56;100.00
15634;BME280;14654;48.898;8.308;2023-05-03T04:32:42;101159.53;;;6.60;100.00
15634;BME280;14654;48.898;8.308;2023-05-03T04:35:08;101162.91;;;6.58;100.00
15634;BME280;14654;48.898;8.308;2023-05-03T04:37:39;101163.75;;;6.58;100.00
15634;BME280;14654;48.898;8.308;2023-05-03T04:40:05;101160.34;;;6.59;100.00
15634;BME280;14654;48.898;8.308;2023-05-03T04:42:33;101160.47;;;6.64;100.00
15634;BME280;14654;48.898;8.308;2023-05-03T04:44:58;101161.41;;;6.67;100.00
15634;BME280;14654;48.898;8.308;2023-05-03T04:47:23;101162.38;;;6.73;100.00
15634;BME280;14654;48.898;8.308;2023-05-03T04:49:50;101165.06;;;6.79;100.00
15634;BME280;14654;48.898;8.308;2023-05-03T04:52:15;101159.31;;;6.91;100.00
15634;BME280;14654;48.898;8.308;2023-05-03T04:54:40;101172.25;;;6.94;100.00
15634;BME280;14654;48.898;8.308;2023-05-03T04:57:06;101164.47;;;6.92;100.00
15634;BME280;14654;48.898;8.308;2023-05-03T04:59:31;101166.25;;;6.95;100.00
15634;BME280;14654;48.898;8.308;2023-05-03T05:01:56;101164.63;;;7.00;100.00
15634;BME280;14654;48.898;8.308;2023-05-03T05:04:22;101170.00;;;7.11;100.00
15634;BME280;14654;48.898;8.308;2023-05-03T05:06:50;101171.78;;;7.15;100.00
15634;BME280;14654;48.898;8.308;2023-05-03T05:09:23;101182.31;;;7.26;100.00
15634;BME280;14654;48.898;8.308;2023-05-03T05:11:50;101184.97;;;7.32;100.00
15634;BME280;14654;48.898;8.308;2023-05-03T05:14:16;101183.44;;;7.40;100.00
15634;BME280;14654;48.898;8.308;2023-05-03T05:16:41;101180.31;;;7.60;100.00
15634;BME280;14654;48.898;8.308;2023-05-03T05:19:07;101176.59;;;7.93;100.00
15634;BME280;14654;48.898;8.308;2023-05-03T05:21:32;101178.97;;;8.37;100.00
15634;BME280;14654;48.898;8.308;2023-05-03T05:23:58;101174.56;;;8.93;100.00
15634;BME280;14654;48.898;8.308;2023-05-03T05:26:25;101172.50;;;9.37;100.00
15634;BME280;14654;48.898;8.308;2023-05-03T05:28:51;101161.09;;;10.13;100.00
15634;BME280;14654;48.898;8.308;2023-05-03T05:31:16;101161.41;;;10.64;96.65
15634;BME280;14654;48.898;8.308;2023-05-03T05:33:41;101158.13;;;11.12;94.33
15634;BME280;14654;48.898;8.308;2023-05-03T05:36:07;101165.16;;;11.69;92.07
15634;BME280;14654;48.898;8.308;2023-05-03T05:38:32;101162.53;;;11.95;90.40
15634;BME280;14654;48.898;8.308;2023-05-03T05:40:58;101162.53;;;12.39;88.21
15634;BME280;14654;48.898;8.308;2023-05-03T05:43:23;101161.59;;;12.57;86.63
15634;BME280;14654;48.898;8.308;2023-05-03T05:45:49;101159.91;;;12.34;86.77
15634;BME280;14654;48.898;8.308;2023-05-03T05:48:14;101157.31;;;12.34;87.82
15634;BME280;14654;48.898;8.308;2023-05-03T05:50:39;101159.06;;;12.37;87.49
15634;BME280;14654;48.898;8.308;2023-05-03T05:53:05;101161.56;;;12.58;86.56
15634;BME280;14654;48.898;8.308;2023-05-03T05:55:30;101147.56;;;12.95;85.91
15634;BME280;14654;48.898;8.308;2023-05-03T05:57:55;101144.25;;;12.70;86.22
15634;BME280;14654;48.898;8.308;2023-05-03T06:00:21;101157.94;;;13.03;85.37
15634;BME280;14654;48.898;8.308;2023-05-03T06:02:46;101150.13;;;13.03;85.66
15634;BME280;14654;48.898;8.308;2023-05-03T06:05:12;101149.94;;;13.37;83.57
15634;BME280;14654;48.898;8.308;2023-05-03T06:07:38;101152.50;;;13.48;83.02
15634;BME280;14654;48.898;8.308;2023-05-03T06:10:04;101148.16;;;13.50;82.96
15634;BME280;14654;48.898;8.308;2023-05-03T06:12:29;101145.53;;;13.54;82.79
15634;BME280;14654;48.898;8.308;2023-05-03T06:14:55;101144.09;;;14.17;81.09
15634;BME280;14654;48.898;8.308;2023-05-03T06:17:21;101152.84;;;14.10;80.92
15634;BME280;14654;48.898;8.308;2023-05-03T06:19:47;101150.41;;;13.92;81.22
15634;BME280;14654;48.898;8.308;2023-05-03T06:22:14;101155.31;;;14.23;81.12
15634;BME280;14654;48.898;8.308;2023-05-03T06:24:39;101150.97;;;14.26;80.67
15634;BME280;14654;48.898;8.308;2023-05-03T06:27:05;101151.78;;;15.05;77.81
15634;BME280;14654;48.898;8.308;2023-05-03T06:29:30;101149.75;;;15.26;77.58
15634;BME280;14654;48.898;8.308;2023-05-03T06:31:55;101154.53;;;15.53;77.04
15634;BME280;14654;48.898;8.308;2023-05-03T06:34:21;101152.78;;;15.55;76.25
15634;BME280;14654;48.898;8.308;2023-05-03T06:36:47;101141.81;;;15.33;77.14
15634;BME280;14654;48.898;8.308;2023-05-03T06:39:12;101126.81;;;14.88;78.02
15634;BME280;14654;48.898;8.308;2023-05-03T06:41:38;101130.56;;;15.30;77.75
15634;BME280;14654;48.898;8.308;2023-05-03T06:44:03;101130.06;;;15.64;76.88
15634;BME280;14654;48.898;8.308;2023-05-03T06:46:29;101121.78;;;15.35;77.71
15634;BME280;14654;48.898;8.308;2023-05-03T06:48:55;101124.88;;;15.61;77.10
15634;BME280;14654;48.898;8.308;2023-05-03T06:51:22;101130.75;;;15.16;78.20
15634;BME280;14654;48.898;8.308;2023-05-03T06:53:52;101123.25;;;15.53;78.09
15634;BME280;14654;48.898;8.308;2023-05-03T06:56:17;101127.97;;;15.30;78.41
15634;BME280;14654;48.898;8.308;2023-05-03T06:58:42;101107.25;;;15.75;77.52
15634;BME280;14654;48.898;8.308;2023-05-03T07:01:08;101111.19;;;15.45;78.16
15634;BME280;14654;48.898;8.308;2023-05-03T07:03:33;101107.34;;;15.13;78.88
15634;BME280;14654;48.898;8.308;2023-05-03T07:05:58;101111.13;;;14.93;80.19
15634;BME280;14654;48.898;8.308;2023-05-03T07:08:24;101113.63;;;15.01;80.36
15634;BME280;14654;48.898;8.308;2023-05-03T07:10:49;101109.25;;;15.03;80.85
15634;BME280;14654;48.898;8.308;2023-05-03T07:13:14;101109.50;;;14.83;82.20
15634;BME280;14654;48.898;8.308;2023-05-03T07:15:40;101119.00;;;14.87;81.99
15634;BME280;14654;48.898;8.308;2023-05-03T07:18:05;101108.63;;;14.85;81.99
15634;BME280;14654;48.898;8.308;2023-05-03T07:20:31;101120.13;;;14.66;82.24
15634;BME280;14654;48.898;8.308;2023-05-03T07:22:56;101106.88;;;14.84;81.99
15634;BME280;14654;48.898;8.308;2023-05-03T07:25:22;101106.28;;;14.62;82.35
15634;BME280;14654;48.898;8.308;2023-05-03T07:27:47;101112.28;;;14.70;82.69
15634;BME280;14654;48.898;8.308;2023-05-03T07:30:13;101115.56;;;14.86;82.96
15634;BME280;14654;48.898;8.308;2023-05-03T07:32:38;101108.09;;;14.54;83.87
15634;BME280;14654;48.898;8.308;2023-05-03T07:35:04;101101.38;;;14.36;84.71
15634;BME280;14654;48.898;8.308;2023-05-03T07:37:31;101117.97;;;14.28;84.49
15634;BME280;14654;48.898;8.308;2023-05-03T07:39:56;101107.63;;;14.19;85.60
15634;BME280;14654;48.898;8.308;2023-05-03T07:42:22;101097.31;;;14.13;86.18
15634;BME280;14654;48.898;8.308;2023-05-03T07:44:47;101113.56;;;14.32;85.79
15634;BME280;14654;48.898;8.308;2023-05-03T07:47:12;101121.59;;;14.12;86.13
15634;BME280;14654;48.898;8.308;2023-05-03T07:49:38;101104.50;;;13.86;87.67
15634;BME280;14654;48.898;8.308;2023-05-03T07:52:03;101107.94;;;13.90;87.69
15634;BME280;14654;48.898;8.308;2023-05-03T07:54:28;101102.84;;;13.77;88.41
15634;BME280;14654;48.898;8.308;2023-05-03T07:56:54;101102.09;;;13.64;88.07
15634;BME280;14654;48.898;8.308;2023-05-03T07:59:19;101090.06;;;13.51;88.52
15634;BME280;14654;48.898;8.308;2023-05-03T08:01:45;101101.41;;;13.36;89.47
15634;BME280;14654;48.898;8.308;2023-05-03T08:04:10;101097.13;;;13.30;90.14
15634;BME280;14654;48.898;8.308;2023-05-03T08:06:35;101103.13;;;13.41;90.34
15634;BME280;14654;48.898;8.308;2023-05-03T08:09:02;101100.53;;;13.41;90.45
15634;BME280;14654;48.898;8.308;2023-05-03T08:11:28;101105.75;;;13.34;90.67
15634;BME280;14654;48.898;8.308;2023-05-03T08:13:54;101105.78;;;13.29;90.43
15634;BME280;14654;48.898;8.308;2023-05-03T08:16:20;101117.00;;;13.42;90.39
15634;BME280;14654;48.898;8.308;2023-05-03T08:18:45;101107.50;;;13.41;91.08
15634;BME280;14654;48.898;8.308;2023-05-03T08:21:11;101112.63;;;13.49;91.43
15634;BME280;14654;48.898;8.308;2023-05-03T08:23:38;101109.09;;;13.57;90.53
15634;BME280;14654;48.898;8.308;2023-05-03T08:26:04;101108.97;;;13.70;90.84
15634;BME280;14654;48.898;8.308;2023-05-03T08:28:31;101113.34;;;13.66;90.73
15634;BME280;14654;48.898;8.308;2023-05-03T08:30:57;101115.88;;;13.76;91.35
15634;BME280;14654;48.898;8.308;2023-05-03T08:33:22;101117.63;;;13.75;90.95
15634;BME280;14654;48.898;8.308;2023-05-03T08:35:47;101115.81;;;13.80;90.82
15634;BME280;14654;48.898;8.308;2023-05-03T08:38:13;101113.25;;;13.79;90.74
15634;BME280;14654;48.898;8.308;2023-05-03T08:40:39;101114.94;;;13.81;90.09
15634;BME280;14654;48.898;8.308;2023-05-03T08:43:07;101124.41;;;13.90;90.56
15634;BME280;14654;48.898;8.308;2023-05-03T08:45:33;101111.47;;;13.82;90.24
15634;BME280;14654;48.898;8.308;2023-05-03T08:47:59;101128.78;;;13.86;90.21
15634;BME280;14654;48.898;8.308;2023-05-03T08:50:27;101106.16;;;13.93;90.68
15634;BME280;14654;48.898;8.308;2023-05-03T08:52:52;101113.94;;;13.96;90.54
15634;BME280;14654;48.898;8.308;2023-05-03T08:55:17;101106.19;;;13.90;89.89
15634;BME280;14654;48.898;8.308;2023-05-03T08:57:43;101113.97;;;13.92;90.41
15634;BME280;14654;48.898;8.308;2023-05-03T09:00:08;101114.00;;;13.90;90.49
15634;BME280;14654;48.898;8.308;2023-05-03T09:02:38;101110.50;;;13.93;91.07
15634;BME280;14654;48.898;8.308;2023-05-03T09:05:30;101109.59;;;13.97;90.08
15634;BME280;14654;48.898;8.308;2023-05-03T09:08:05;101113.84;;;14.06;89.85
15634;BME280;14654;48.898;8.308;2023-05-03T09:10:33;101108.66;;;14.02;89.97
15634;BME280;14654;48.898;8.308;2023-05-03T09:13:01;101113.78;;;14.10;90.56
15634;BME280;14654;48.898;8.308;2023-05-03T09:15:29;101108.53;;;14.15;90.34
15634;BME280;14654;48.898;8.308;2023-05-03T09:18:24;101104.16;;;14.22;89.64
15634;BME280;14654;48.898;8.308;2023-05-03T09:20:51;101104.09;;;14.26;90.51
15634;BME280;14654;48.898;8.308;2023-05-03T09:25:51;101106.59;;;14.36;89.72
15634;BME280;14654;48.898;8.308;2023-05-03T09:28:18;101114.25;;;14.50;90.04
15634;BME280;14654;48.898;8.308;2023-05-03T09:30:44;101116.06;;;14.41;89.21
15634;BME280;14654;48.898;8.308;2023-05-03T09:33:10;101102.84;;;14.58;89.31
15634;BME280;14654;48.898;8.308;2023-05-03T09:35:37;101099.31;;;14.62;89.88
15634;BME280;14654;48.898;8.308;2023-05-03T09:38:04;101097.59;;;14.63;88.62
15634;BME280;14654;48.898;8.308;2023-05-03T09:40:30;101099.22;;;14.73;88.70
15634;BME280;14654;48.898;8.308;2023-05-03T09:43:09;101099.81;;;14.94;89.15
15634;BME280;14654;48.898;8.308;2023-05-03T09:45:36;101111.00;;;15.01;88.73
15634;BME280;14654;48.898;8.308;2023-05-03T09:48:03;101098.75;;;15.07;88.07
15634;BME280;14654;48.898;8.308;2023-05-03T09:50:32;101094.03;;;15.31;87.37
15634;BME280;14654;48.898;8.308;2023-05-03T09:53:01;101096.44;;;15.45;86.72
15634;BME280;14654;48.898;8.308;2023-05-03T09:55:31;101093.94;;;15.37;86.67
15634;BME280;14654;48.898;8.308;2023-05-03T09:57:56;101082.34;;;15.55;86.79
15634;BME280;14654;48.898;8.308;2023-05-03T10:00:22;101080.22;;;15.79;85.68
15634;BME280;14654;48.898;8.308;2023-05-03T10:02:49;101094.28;;;15.69;85.85
15634;BME280;14654;48.898;8.308;2023-05-03T10:05:20;101085.81;;;15.56;85.76
15634;BME280;14654;48.898;8.308;2023-05-03T10:07:49;101080.44;;;15.65;86.32
15634;BME280;14654;48.898;8.308;2023-05-03T10:10:15;101088.03;;;15.79;86.80
15634;BME280;14654;48.898;8.308;2023-05-03T10:12:42;101081.94;;;15.79;85.78
15634;BME280;14654;48.898;8.308;2023-05-03T10:15:09;101088.91;;;15.78;85.50
15634;BME280;14654;48.898;8.308;2023-05-03T10:17:37;101089.81;;;15.77;85.74
15634;BME280;14654;48.898;8.308;2023-05-03T10:20:20;101077.44;;;15.89;86.66
15634;BME280;14654;48.898;8.308;2023-05-03T10:25:30;101070.06;;;16.11;84.86
15634;BME280;14654;48.898;8.308;2023-05-03T10:28:06;101055.72;;;16.32;84.21
15634;BME280;14654;48.898;8.308;2023-05-03T10:30:38;101057.44;;;16.33;84.23
15634;BME280;14654;48.898;8.308;2023-05-03T10:35:38;101059.56;;;16.12;84.02
15634;BME280;14654;48.898;8.308;2023-05-03T10:38:20;101041.88;;;16.27;85.01
15634;BME280;14654;48.898;8.308;2023-05-03T10:40:46;101041.81;;;16.30;84.72
15634;BME280;14654;48.898;8.308;2023-05-03T10:43:40;101038.53;;;16.22;82.59
15634;BME280;14654;48.898;8.308;2023-05-03T10:46:09;101041.16;;;16.20;83.18
15634;BME280;14654;48.898;8.308;2023-05-03T10:49:16;101034.44;;;16.49;84.94
15634;BME280;14654;48.898;8.308;2023-05-03T10:51:42;101022.94;;;16.58;82.06
15634;BME280;14654;48.898;8.308;2023-05-03T10:54:09;101029.94;;;16.57;81.59
15634;BME280;14654;48.898;8.308;2023-05-03T10:56:49;101029.88;;;16.59;81.38
15634;BME280;14654;48.898;8.308;2023-05-03T10:59:15;101018.19;;;16.75;80.90
15634;BME280;14654;48.898;8.308;2023-05-03T11:01:43;101017.94;;;16.86;80.48
15634;BME280;14654;48.898;8.308;2023-05-03T11:04:19;101016.78;;;17.00;79.14
15634;BME280;14654;48.898;8.308;2023-05-03T11:06:46;101019.03;;;17.15;79.59
15634;BME280;14654;48.898;8.308;2023-05-03T11:09:16;101018.19;;;17.15;79.38
15634;BME280;14654;48.898;8.308;2023-05-03T11:11:41;101017.19;;;17.19;79.33
15634;BME280;14654;48.898;8.308;2023-05-03T11:14:08;101011.69;;;17.30;78.52
15634;BME280;14654;48.898;8.308;2023-05-03T11:16:35;101028.47;;;17.21;76.80
15634;BME280;14654;48.898;8.308;2023-05-03T11:19:01;101020.69;;;17.19;78.14
15634;BME280;14654;48.898;8.308;2023-05-03T11:21:27;101014.69;;;17.16;79.90
15634;BME280;14654;48.898;8.308;2023-05-03T11:23:52;101015.25;;;17.27;78.23
15634;BME280;14654;48.898;8.308;2023-05-03T11:26:18;101002.13;;;17.29;78.22
15634;BME280;14654;48.898;8.308;2023-05-03T11:28:47;100997.03;;;17.24;77.96
15634;BME280;14654;48.898;8.308;2023-05-03T11:31:12;100986.28;;;17.35;78.32
15634;BME280;14654;48.898;8.308;2023-05-03T11:33:39;101007.59;;;17.54;77.66
15634;BME280;14654;48.898;8.308;2023-05-03T11:36:06;101009.66;;;17.41;78.18
15634;BME280;14654;48.898;8.308;2023-05-03T11:38:35;100999.63;;;17.24;77.64
15634;BME280;14654;48.898;8.308;2023-05-03T11:41:10;100993.31;;;17.33;77.66
15634;BME280;14654;48.898;8.308;2023-05-03T11:43:40;100995.81;;;17.37;77.59
15634;BME280;14654;48.898;8.308;2023-05-03T11:46:05;100987.72;;;17.47;77.59
15634;BME280;14654;48.898;8.308;2023-05-03T11:48:32;100981.28;;;17.59;76.90
15634;BME280;14654;48.898;8.308;2023-05-03T11:50:58;100981.13;;;17.65;76.87
15634;BME280;14654;48.898;8.308;2023-05-03T11:53:25;100973.31;;;17.63;76.58
15634;BME280;14654;48.898;8.308;2023-05-03T11:55:53;100971.69;;;17.59;76.57
15634;BME280;14654;48.898;8.308;2023-05-03T11:58:24;100978.59;;;17.62;76.29
15634;BME280;14654;48.898;8.308;2023-05-03T12:00:51;100973.97;;;17.72;76.51
15634;BME280;14654;48.898;8.308;2023-05-03T12:05:47;100964.03;;;17.83;77.11
15634;BME280;14654;48.898;8.308;2023-05-03T12:08:12;100990.22;;;17.85;75.77
15634;BME280;14654;48.898;8.308;2023-05-03T12:10:39;100955.59;;;17.73;74.04
15634;BME280;14654;48.898;8.308;2023-05-03T12:13:05;100979.22;;;17.70;76.46
15634;BME280;14654;48.898;8.308;2023-05-03T12:15:33;100969.91;;;17.61;74.80
15634;BME280;14654;48.898;8.308;2023-05-03T12:18:00;100964.34;;;17.72;75.12
15634;BME280;14654;48.898;8.308;2023-05-03T12:20:28;100961.50;;;17.80;74.54
15634;BME280;14654;48.898;8.308;2023-05-03T12:23:01;100964.03;;;17.83;74.68
15634;BME280;14654;48.898;8.308;2023-05-03T12:25:28;100956.47;;;17.74;74.27
15634;BME280;14654;48.898;8.308;2023-05-03T12:27:55;100958.06;;;17.78;75.29
15634;BME280;14654;48.898;8.308;2023-05-03T12:30:22;100949.44;;;17.74;74.80
15634;BME280;14654;48.898;8.308;2023-05-03T12:32:47;100937.84;;;17.85;73.71
15634;BME280;14654;48.898;8.308;2023-05-03T12:35:13;100939.16;;;18.00;73.39
15634;BME280;14654;48.898;8.308;2023-05-03T12:37:38;100942.63;;;18.00;73.60
15634;BME280;14654;48.898;8.308;2023-05-03T12:40:05;100955.22;;;17.86;73.01
15634;BME280;14654;48.898;8.308;2023-05-03T12:42:30;100927.38;;;17.83;72.91
15634;BME280;14654;48.898;8.308;2023-05-03T12:44:57;100936.50;;;18.01;73.68
15634;BME280;14654;48.898;8.308;2023-05-03T12:47:22;100931.16;;;18.04;73.31
15634;BME280;14654;48.898;8.308;2023-05-03T12:49:48;100920.97;;;18.23;72.70
15634;BME280;14654;48.898;8.308;2023-05-03T12:52:13;100923.81;;;18.17;73.17
15634;BME280;14654;48.898;8.308;2023-05-03T12:54:39;100922.94;;;18.17;73.01
15634;BME280;14654;48.898;8.308;2023-05-03T12:57:06;100920.06;;;18.26;73.17
15634;BME280;14654;48.898;8.308;2023-05-03T12:59:32;100908.69;;;18.25;72.33
15634;BME280;14654;48.898;8.308;2023-05-03T13:01:57;100909.75;;;18.20;71.98
15634;BME280;14654;48.898;8.308;2023-05-03T13:04:22;100909.84;;;18.17;73.24
15634;BME280;14654;48.898;8.308;2023-05-03T13:06:47;100898.34;;;18.22;73.29
15634;BME280;14654;48.898;8.308;2023-05-03T13:09:17;100899.78;;;18.31;72.63
15634;BME280;14654;48.898;8.308;2023-05-03T13:11:43;100889.13;;;18.37;72.46